Time;durP1;ratioP1;P1;durP2;ratioP2;P2;SDS_P1;SDS_P2;PMS_P1;PMS_P2;Temp;Humidity;BMP_temperature;BMP_pressure;BME280_temperature;BME280_humidity;BME280_pressure;Samples;Min_cycle;Max_cycle;Signal;HPM_P1;HPM_P2
2021/11/07 00:02:37;;;;;;;25.93;10.83;;;5.50;99.90;;;;;;5007858;28;20042;-75
2021/11/07 00:12:01;;;;;;;25.27;10.93;;;5.60;99.90;;;;;;4996228;28;20109;-75
2021/11/07 00:14:27;;;;;;;25.43;9.77;;;5.50;99.90;;;;;;4996437;28;20023;-75
2021/11/07 00:16:55;;;;;;;22.30;10.20;;;5.50;99.90;;;;;;4994643;28;20034;-75
2021/11/07 00:19:35;;;;;;;25.13;10.10;;;5.50;99.90;;;;;;4996261;28;20125;-75
2021/11/07 00:22:11;;;;;;;23.23;9.90;;;5.50;99.90;;;;;;4995116;28;20448;-75
2021/11/07 00:24:45;;;;;;;21.23;9.93;;;5.40;99.90;;;;;;4994432;28;20129;-76
2021/11/07 00:37:47;;;;;;;18.87;7.83;;;5.40;99.90;;;;;;4995483;28;20217;-74
2021/11/07 00:50:30;;;;;;;26.03;9.37;;;5.30;99.90;;;;;;4995693;28;20026;-75
2021/11/07 00:53:11;;;;;;;29.37;10.53;;;5.30;99.90;;;;;;4993837;28;20022;-74
2021/11/07 00:55:46;;;;;;;26.93;9.30;;;5.40;99.90;;;;;;4993873;28;20027;-75
2021/11/07 00:58:19;;;;;;;32.03;10.73;;;5.40;99.90;;;;;;4995532;28;20085;-75
2021/11/07 01:00:57;;;;;;;29.90;9.97;;;5.40;99.90;;;;;;4993605;28;20134;-75
2021/11/07 01:03:24;;;;;;;29.70;10.37;;;5.40;99.90;;;;;;4995449;28;20072;-75
2021/11/07 01:05:50;;;;;;;28.50;9.70;;;5.40;99.90;;;;;;4994925;28;20019;-75
2021/11/07 01:08:16;;;;;;;34.50;11.63;;;5.50;99.90;;;;;;4994949;28;20033;-75
2021/11/07 01:10:42;;;;;;;31.30;10.67;;;5.40;99.90;;;;;;4993682;28;20026;-75
2021/11/07 01:13:08;;;;;;;35.20;10.90;;;5.40;99.90;;;;;;4995378;28;20022;-75
2021/11/07 01:15:33;;;;;;;32.67;11.80;;;5.50;99.90;;;;;;4994002;28;20082;-75
2021/11/07 01:18:00;;;;;;;37.40;11.60;;;5.50;99.90;;;;;;4993414;28;20038;-75
2021/11/07 01:20:29;;;;;;;30.90;10.97;;;5.50;99.90;;;;;;4993874;28;20029;-75
2021/11/07 01:25:30;;;;;;;33.63;11.63;;;5.60;99.90;;;;;;4994845;28;20026;-75
2021/11/07 01:27:58;;;;;;;33.33;10.77;;;5.50;99.90;;;;;;4993292;28;20034;-76
2021/11/07 01:30:26;;;;;;;34.23;10.87;;;5.60;99.90;;;;;;4995001;28;20022;-75
2021/11/07 01:33:07;;;;;;;35.03;11.80;;;5.60;99.90;;;;;;4992798;28;20026;-74
2021/11/07 01:38:14;;;;;;;33.23;11.13;;;5.60;99.90;;;;;;4994788;28;20031;-74
2021/11/07 01:40:46;;;;;;;42.57;12.00;;;5.60;99.90;;;;;;4994213;28;20047;-75
2021/11/07 01:43:13;;;;;;;37.30;12.13;;;5.60;99.90;;;;;;4994813;28;20018;-74
2021/11/07 01:45:49;;;;;;;32.80;11.73;;;5.60;99.90;;;;;;4992841;28;20026;-75
2021/11/07 01:48:23;;;;;;;41.97;11.97;;;5.60;99.90;;;;;;4993516;28;20034;-74
2021/11/07 01:50:53;;;;;;;35.93;11.73;;;5.60;99.90;;;;;;4992937;28;20023;-73
2021/11/07 01:53:32;;;;;;;29.40;10.40;;;5.60;99.90;;;;;;4993363;28;20026;-76
2021/11/07 01:56:04;;;;;;;36.30;12.73;;;5.70;99.90;;;;;;4992665;28;20482;-73
2021/11/07 01:58:31;;;;;;;34.63;11.77;;;5.70;99.90;;;;;;4993027;28;20026;-73
2021/11/07 02:00:58;;;;;;;30.47;11.27;;;5.80;99.90;;;;;;4993848;28;20033;-73
2021/11/07 02:03:25;;;;;;;32.63;11.50;;;5.80;99.90;;;;;;4993141;28;20019;-72
2021/11/07 02:05:52;;;;;;;42.43;12.60;;;5.80;99.90;;;;;;4992721;28;20018;-74
2021/11/07 02:08:19;;;;;;;39.73;12.87;;;5.80;99.90;;;;;;4993173;28;20019;-74
2021/11/07 02:10:46;;;;;;;40.93;13.07;;;5.80;99.90;;;;;;4993173;28;20109;-74
2021/11/07 02:13:11;;;;;;;39.50;12.87;;;5.80;99.90;;;;;;4994087;28;20022;-74
2021/11/07 02:15:37;;;;;;;40.93;13.30;;;5.80;99.90;;;;;;4992872;28;20029;-74
2021/11/07 02:18:04;;;;;;;37.53;12.43;;;5.80;99.90;;;;;;4992482;28;20518;-74
2021/11/07 02:20:36;;;;;;;39.80;13.63;;;5.80;99.90;;;;;;4992939;28;20105;-73
2021/11/07 02:23:09;;;;;;;44.95;13.65;;;5.80;99.90;;;;;;4993485;28;20049;-74
2021/11/07 02:25:36;;;;;;;46.60;14.83;;;5.90;99.90;;;;;;4993882;28;20026;-74
2021/11/07 02:28:03;;;;;;;54.00;13.77;;;5.90;99.90;;;;;;4992222;28;20030;-73
2021/11/07 02:30:29;;;;;;;47.27;13.23;;;5.90;99.90;;;;;;4992603;28;20056;-73
2021/11/07 02:32:58;;;;;;;46.50;14.07;;;5.90;99.90;;;;;;4992011;28;20122;-74
2021/11/07 02:35:26;;;;;;;49.10;14.10;;;5.90;99.90;;;;;;4992690;28;20054;-74
2021/11/07 02:37:52;;;;;;;48.20;14.70;;;5.90;99.90;;;;;;4991945;28;20081;-76
2021/11/07 02:40:18;;;;;;;48.83;14.60;;;5.90;99.90;;;;;;4993420;28;20026;-73
2021/11/07 02:42:46;;;;;;;46.93;15.07;;;5.90;99.90;;;;;;4993171;28;20022;-72
2021/11/07 02:45:13;;;;;;;49.17;14.60;;;5.90;99.90;;;;;;4992362;28;20463;-73
2021/11/07 02:47:40;;;;;;;51.83;15.27;;;6.00;99.90;;;;;;4992429;28;20084;-73
2021/11/07 02:50:08;;;;;;;41.90;14.33;;;6.00;99.90;;;;;;4992368;28;20030;-74
2021/11/07 02:52:34;;;;;;;43.67;15.07;;;6.00;99.90;;;;;;4992451;28;20117;-74
2021/11/07 02:55:00;;;;;;;46.33;14.60;;;6.10;99.90;;;;;;4991736;28;20511;-74
2021/11/07 02:57:26;;;;;;;43.40;14.60;;;6.10;99.90;;;;;;4992361;28;20038;-74
2021/11/07 02:59:58;;;;;;;53.50;15.83;;;6.10;99.90;;;;;;4992610;28;20542;-74
2021/11/07 03:02:25;;;;;;;34.97;11.70;;;6.10;99.90;;;;;;4993616;28;20022;-75
2021/11/07 03:04:51;;;;;;;39.03;14.90;;;6.10;99.90;;;;;;4991781;28;20411;-75
2021/11/07 03:07:17;;;;;;;37.63;14.83;;;6.10;99.90;;;;;;4992196;28;20172;-74
2021/11/07 03:09:43;;;;;;;42.50;15.20;;;6.10;99.90;;;;;;4993018;28;20105;-75
2021/11/07 03:12:10;;;;;;;40.70;15.00;;;6.20;99.90;;;;;;4992305;28;20456;-74
2021/11/07 03:14:41;;;;;;;39.47;14.57;;;6.30;99.90;;;;;;4993409;28;20026;-74
2021/11/07 03:17:09;;;;;;;33.23;14.30;;;6.30;99.90;;;;;;4991830;28;20057;-74
2021/11/07 03:19:36;;;;;;;38.87;15.03;;;6.30;99.90;;;;;;4992171;28;20375;-73
2021/11/07 03:22:13;;;;;;;36.77;14.53;;;6.30;99.90;;;;;;4991371;28;20079;-74
2021/11/07 03:24:40;;;;;;;33.57;14.27;;;6.40;99.90;;;;;;4996888;28;20367;-73
2021/11/07 03:27:19;;;;;;;32.57;14.80;;;6.40;99.90;;;;;;4995338;28;20034;-73
2021/11/07 03:29:51;;;;;;;31.53;14.43;;;6.40;99.90;;;;;;4996656;28;20022;-73
2021/11/07 03:32:28;;;;;;;32.80;13.93;;;6.30;99.90;;;;;;4996018;28;20054;-73
2021/11/07 03:34:57;;;;;;;32.47;14.10;;;6.30;99.90;;;;;;4995305;28;20023;-73
2021/11/07 03:37:26;;;;;;;29.17;13.73;;;6.30;99.90;;;;;;4996940;28;20026;-73
2021/11/07 03:39:55;;;;;;;30.27;14.87;;;6.30;99.90;;;;;;4995336;28;20027;-74
2021/11/07 03:42:23;;;;;;;29.40;14.03;;;6.30;99.90;;;;;;4995755;28;20073;-74
2021/11/07 03:44:50;;;;;;;34.30;13.53;;;6.30;99.90;;;;;;4995187;28;20174;-74
2021/11/07 03:47:16;;;;;;;31.10;13.37;;;6.20;99.90;;;;;;4997027;28;20474;-74
2021/11/07 03:49:42;;;;;;;33.30;14.03;;;6.20;99.90;;;;;;4996917;28;20026;-74
2021/11/07 03:52:09;;;;;;;27.27;12.97;;;6.20;99.90;;;;;;4995146;28;20486;-74
2021/11/07 03:54:37;;;;;;;29.70;13.93;;;6.20;99.90;;;;;;4995670;28;20038;-74
2021/11/07 03:57:04;;;;;;;30.73;13.77;;;6.20;99.90;;;;;;4994863;28;20058;-73
2021/11/07 03:59:31;;;;;;;30.50;13.40;;;6.30;99.90;;;;;;4995008;28;20050;-74
2021/11/07 04:01:57;;;;;;;33.83;13.87;;;6.30;99.90;;;;;;4994859;28;20117;-74
2021/11/07 04:04:23;;;;;;;30.63;13.73;;;6.30;99.90;;;;;;4995249;28;20105;-74
2021/11/07 04:06:49;;;;;;;31.83;14.00;;;6.30;99.90;;;;;;4995843;28;20030;-74
2021/11/07 04:09:15;;;;;;;30.97;13.47;;;6.20;99.90;;;;;;4995277;28;20022;-74
2021/11/07 04:11:42;;;;;;;30.50;13.37;;;6.20;99.90;;;;;;4995316;28;20081;-74
2021/11/07 04:14:10;;;;;;;30.57;13.60;;;6.30;99.90;;;;;;4995998;28;20018;-74
2021/11/07 04:16:37;;;;;;;27.53;12.47;;;6.20;99.90;;;;;;4996259;28;20391;-74
2021/11/07 04:19:03;;;;;;;28.40;13.47;;;6.20;99.90;;;;;;4994577;28;20018;-74
2021/11/07 04:21:30;;;;;;;34.97;14.13;;;6.20;99.90;;;;;;4995014;28;20041;-74
2021/11/07 04:23:55;;;;;;;27.50;13.43;;;6.20;99.90;;;;;;4994437;28;20030;-74
2021/11/07 04:26:22;;;;;;;32.97;14.17;;;6.20;99.90;;;;;;4994867;28;20041;-74
2021/11/07 04:28:48;;;;;;;28.17;12.60;;;6.10;99.90;;;;;;4994405;28;20030;-74
2021/11/07 04:31:15;;;;;;;29.27;13.23;;;6.20;99.90;;;;;;4994930;28;20037;-74
2021/11/07 04:33:41;;;;;;;30.27;13.17;;;6.20;99.90;;;;;;4994405;28;20022;-74
2021/11/07 04:36:06;;;;;;;43.80;13.67;;;6.20;99.90;;;;;;4994276;28;20190;-73
2021/11/07 04:38:34;;;;;;;33.13;14.47;;;6.20;99.90;;;;;;4996260;28;20053;-73
2021/11/07 04:41:00;;;;;;;29.03;13.40;;;6.20;99.90;;;;;;4994217;28;20367;-74
2021/11/07 04:43:27;;;;;;;29.87;13.37;;;6.20;99.90;;;;;;4994302;28;20022;-74
2021/11/07 04:45:52;;;;;;;33.93;13.90;;;6.30;99.90;;;;;;4994159;28;20027;-74
2021/11/07 04:48:19;;;;;;;32.87;13.87;;;6.30;99.90;;;;;;4995771;28;20037;-74
2021/11/07 04:50:46;;;;;;;34.37;13.67;;;6.30;99.90;;;;;;4994353;28;20103;-74
2021/11/07 04:53:13;;;;;;;30.83;13.90;;;6.20;99.90;;;;;;4995176;28;20022;-75
2021/11/07 04:55:41;;;;;;;33.50;13.30;;;6.20;99.90;;;;;;4994471;28;20455;-74
2021/11/07 04:58:08;;;;;;;29.77;14.23;;;6.30;99.90;;;;;;4993754;28;20034;-74
2021/11/07 05:00:35;;;;;;;30.57;13.47;;;6.30;99.90;;;;;;4994297;28;20080;-74
2021/11/07 05:03:05;;;;;;;31.90;13.80;;;6.20;99.90;;;;;;4993806;28;20022;-74
2021/11/07 05:05:31;;;;;;;33.17;14.20;;;6.20;99.90;;;;;;4995417;28;20022;-74
2021/11/07 05:07:58;;;;;;;31.23;12.97;;;6.20;99.90;;;;;;4994994;28;20034;-74
2021/11/07 05:10:25;;;;;;;33.23;13.60;;;6.10;99.90;;;;;;4995450;28;20080;-74
2021/11/07 05:12:51;;;;;;;30.33;13.13;;;6.10;99.90;;;;;;4994927;28;20032;-74
2021/11/07 05:15:18;;;;;;;31.23;13.63;;;6.10;99.90;;;;;;4994449;28;20034;-74
2021/11/07 05:17:44;;;;;;;31.73;12.90;;;6.20;99.90;;;;;;4994837;28;20117;-74
2021/11/07 05:20:11;;;;;;;31.47;13.60;;;6.20;99.90;;;;;;4993695;28;20062;-73
2021/11/07 05:22:37;;;;;;;36.50;14.83;;;6.20;99.90;;;;;;4994741;28;20019;-73
2021/11/07 05:25:04;;;;;;;33.93;14.30;;;6.10;99.90;;;;;;4993177;28;20061;-73
2021/11/07 05:27:30;;;;;;;34.97;13.83;;;6.10;99.90;;;;;;4995034;28;20118;-73
2021/11/07 05:29:55;;;;;;;34.07;14.47;;;6.10;99.90;;;;;;4994455;28;20447;-75
2021/11/07 05:32:21;;;;;;;34.47;14.10;;;6.10;99.90;;;;;;4993863;28;20030;-74
2021/11/07 05:34:47;;;;;;;32.63;13.70;;;6.10;99.90;;;;;;4995055;28;20034;-74
2021/11/07 05:37:13;;;;;;;34.50;14.10;;;6.10;99.90;;;;;;4994305;28;20034;-74
2021/11/07 05:39:39;;;;;;;36.67;13.87;;;6.10;99.90;;;;;;4994954;28;20026;-74
2021/11/07 05:42:05;;;;;;;30.80;12.70;;;6.10;99.90;;;;;;4992997;28;20117;-74
2021/11/07 05:44:31;;;;;;;34.30;13.97;;;6.10;99.90;;;;;;4993422;28;20459;-74
2021/11/07 05:46:57;;;;;;;36.73;14.27;;;6.10;99.90;;;;;;4992038;28;20029;-74
2021/11/07 05:49:23;;;;;;;33.53;13.93;;;6.10;99.90;;;;;;4993573;28;20023;-73
2021/11/07 05:51:49;;;;;;;34.77;13.57;;;6.00;99.90;;;;;;4994712;28;20018;-74
2021/11/07 05:54:15;;;;;;;33.70;13.97;;;6.00;99.90;;;;;;4992924;28;20033;-74
2021/11/07 05:56:41;;;;;;;30.40;13.33;;;6.00;99.90;;;;;;4992748;28;20034;-74
2021/11/07 05:59:08;;;;;;;36.93;14.57;;;6.00;99.90;;;;;;4992477;28;20052;-74
2021/11/07 06:01:35;;;;;;;31.27;13.97;;;6.00;99.90;;;;;;4993231;28;20026;-74
2021/11/07 06:04:05;;;;;;;30.40;12.97;;;5.90;99.90;;;;;;4992730;28;20085;-75
2021/11/07 06:06:31;;;;;;;33.40;13.63;;;5.90;99.90;;;;;;4992889;28;20113;-74
2021/11/07 06:08:57;;;;;;;31.33;12.87;;;5.90;99.90;;;;;;4993655;28;20030;-74
2021/11/07 06:11:23;;;;;;;35.17;14.07;;;6.00;99.90;;;;;;4992963;28;20026;-74
2021/11/07 06:13:49;;;;;;;28.50;12.17;;;6.00;99.90;;;;;;4993130;28;20028;-75
2021/11/07 06:16:15;;;;;;;35.87;14.00;;;6.00;99.90;;;;;;4992370;28;20533;-74
2021/11/07 06:18:41;;;;;;;33.00;13.70;;;5.90;99.90;;;;;;4992937;28;20027;-74
2021/11/07 06:21:09;;;;;;;31.93;13.50;;;5.90;99.90;;;;;;4992449;28;20054;-75
2021/11/07 06:23:35;;;;;;;33.00;13.50;;;5.90;99.90;;;;;;4992878;28;20029;-74
2021/11/07 06:26:01;;;;;;;29.47;12.83;;;5.90;99.90;;;;;;4992420;28;20061;-74
2021/11/07 06:28:28;;;;;;;40.43;14.93;;;5.90;99.90;;;;;;4992757;28;20517;-74
2021/11/07 06:30:55;;;;;;;32.63;13.80;;;5.90;99.90;;;;;;4993392;28;20387;-75
2021/11/07 06:33:21;;;;;;;37.60;14.93;;;5.90;99.90;;;;;;4994011;28;20018;-74
2021/11/07 06:35:46;;;;;;;35.67;14.13;;;5.90;99.90;;;;;;4993497;28;20075;-74
2021/11/07 06:38:13;;;;;;;36.67;14.60;;;5.90;99.90;;;;;;4993428;28;20030;-74
2021/11/07 06:40:39;;;;;;;39.27;13.33;;;5.90;99.90;;;;;;4993919;28;20022;-74
2021/11/07 06:43:07;;;;;;;33.93;13.50;;;5.90;99.90;;;;;;4992200;28;20402;-74
2021/11/07 06:45:34;;;;;;;33.90;13.43;;;5.90;99.90;;;;;;4992328;28;20033;-74
2021/11/07 06:48:00;;;;;;;32.80;13.93;;;5.90;99.90;;;;;;4992020;28;20372;-73
2021/11/07 06:50:26;;;;;;;28.73;12.47;;;5.90;99.90;;;;;;4992469;28;20366;-74
2021/11/07 06:52:52;;;;;;;32.07;13.73;;;5.90;99.90;;;;;;4992402;28;20022;-74
2021/11/07 06:55:18;;;;;;;36.23;14.23;;;5.90;99.90;;;;;;4991875;28;20027;-74
2021/11/07 06:57:44;;;;;;;37.50;14.10;;;5.90;99.90;;;;;;4992065;28;20464;-74
2021/11/07 07:00:13;;;;;;;35.67;13.33;;;5.80;99.90;;;;;;4991462;28;20377;-74
2021/11/07 07:02:40;;;;;;;31.97;13.53;;;5.90;99.90;;;;;;4992419;28;20073;-75
2021/11/07 07:05:07;;;;;;;35.60;13.53;;;5.90;99.90;;;;;;4991899;28;20026;-74
2021/11/07 07:07:36;;;;;;;38.27;12.83;;;5.90;99.90;;;;;;4993549;28;20030;-74
2021/11/07 07:10:06;;;;;;;35.20;13.07;;;5.90;99.90;;;;;;4991846;28;20027;-74
2021/11/07 07:12:38;;;;;;;31.30;12.57;;;5.90;99.90;;;;;;4992307;28;20419;-76
2021/11/07 07:15:12;;;;;;;37.40;12.87;;;6.00;99.90;;;;;;4992768;28;20468;-75
2021/11/07 07:17:48;;;;;;;32.00;12.77;;;6.00;99.90;;;;;;4992171;28;20371;-76
2021/11/07 07:21:07;;;;;;;29.00;12.13;;;6.00;99.90;;;;;;4992875;28;20053;-75
2021/11/07 07:26:03;;;;;;;30.88;12.55;;;6.10;99.90;;;;;;4993536;28;20026;-75
2021/11/07 07:35:52;;;;;;;39.77;14.07;;;6.40;99.90;;;;;;5005810;28;20034;-75
2021/11/07 07:38:18;;;;;;;31.43;12.23;;;6.40;99.90;;;;;;5010734;28;20045;-75
2021/11/07 07:40:44;;;;;;;31.60;13.30;;;6.40;99.90;;;;;;5027282;28;20026;-75
2021/11/07 07:43:10;;;;;;;26.93;11.60;;;6.40;99.90;;;;;;5012186;28;20029;-75
2021/11/07 07:45:36;;;;;;;30.03;11.77;;;6.40;99.90;;;;;;5020469;28;20034;-76
2021/11/07 07:48:03;;;;;;;26.23;11.53;;;6.40;99.90;;;;;;5009881;28;20478;-76
2021/11/07 07:50:29;;;;;;;28.83;11.17;;;6.40;99.90;;;;;;5006875;28;20032;-76
2021/11/07 07:52:55;;;;;;;27.80;11.90;;;6.40;99.90;;;;;;5008003;28;20045;-78
2021/11/07 07:55:21;;;;;;;26.27;10.93;;;6.40;99.90;;;;;;5024034;28;20026;-75
2021/11/07 07:57:47;;;;;;;25.17;10.17;;;6.50;99.90;;;;;;5009703;28;20407;-75
2021/11/07 08:00:16;;;;;;;26.57;11.00;;;6.40;99.90;;;;;;5026273;28;20066;-76
2021/11/07 08:02:42;;;;;;;26.50;9.90;;;6.40;99.90;;;;;;5026768;28;20116;-74
2021/11/07 08:05:09;;;;;;;25.30;9.83;;;6.50;99.90;;;;;;5011062;28;20386;-75
2021/11/07 08:07:35;;;;;;;26.03;10.40;;;6.50;99.90;;;;;;5010162;28;20128;-75
2021/11/07 08:10:02;;;;;;;22.80;9.67;;;6.50;99.90;;;;;;5013862;28;20754;-75
2021/11/07 08:12:28;;;;;;;23.47;9.57;;;6.60;99.90;;;;;;5012804;28;20026;-75
2021/11/07 08:14:54;;;;;;;23.53;10.03;;;6.60;99.90;;;;;;5014101;28;20026;-76
2021/11/07 08:17:20;;;;;;;22.80;10.00;;;6.60;99.90;;;;;;5012842;28;20038;-75
2021/11/07 08:19:45;;;;;;;25.23;9.97;;;6.60;99.90;;;;;;5045320;28;20076;-75
2021/11/07 08:22:12;;;;;;;20.40;9.17;;;6.60;99.90;;;;;;5011540;28;20076;-75
2021/11/07 08:24:38;;;;;;;18.33;9.20;;;6.80;99.90;;;;;;5013558;28;20017;-75
2021/11/07 08:27:05;;;;;;;22.83;9.60;;;6.90;99.90;;;;;;5013596;28;20038;-76
2021/11/07 08:29:31;;;;;;;21.80;9.40;;;6.90;99.90;;;;;;5013495;28;20449;-75
2021/11/07 08:31:58;;;;;;;20.73;9.43;;;6.90;99.90;;;;;;5013213;28;20029;-77
2021/11/07 08:34:28;;;;;;;22.67;9.03;;;6.90;99.90;;;;;;5011704;28;20061;-76
2021/11/07 08:37:06;;;;;;;22.43;9.30;;;6.90;99.90;;;;;;5011788;28;20066;-76
2021/11/07 08:39:40;;;;;;;21.10;9.13;;;6.90;99.90;;;;;;5012891;28;20080;-76
2021/11/07 08:42:58;;;;;;;23.33;9.37;;;6.90;99.90;;;;;;5010458;28;20030;-77
2021/11/07 09:01:29;;;;;;;20.93;9.33;;;7.00;99.90;;;;;;5011880;28;20257;-76
2021/11/07 09:04:17;;;;;;;20.50;9.47;;;7.00;99.90;;;;;;5007608;28;20022;-76
2021/11/07 09:06:56;;;;;;;24.33;10.17;;;7.00;99.90;;;;;;5027074;28;20364;-76
2021/11/07 09:09:33;;;;;;;20.10;8.87;;;7.00;99.90;;;;;;5009466;28;20022;-76
2021/11/07 09:12:00;;;;;;;22.07;9.83;;;7.00;99.90;;;;;;5004536;28;20025;-76
2021/11/07 09:14:35;;;;;;;20.10;9.07;;;7.00;99.90;;;;;;5027600;28;20842;-75
2021/11/07 09:17:02;;;;;;;21.97;9.93;;;7.00;99.90;;;;;;5009553;28;20121;-76
2021/11/07 09:19:30;;;;;;;22.43;9.30;;;7.00;99.90;;;;;;5011608;28;20030;-77
2021/11/07 09:22:02;;;;;;;23.40;9.83;;;7.10;99.90;;;;;;5013408;28;20072;-76
2021/11/07 09:24:33;;;;;;;20.73;9.27;;;7.10;99.90;;;;;;5011979;28;20540;-76
2021/11/07 09:27:01;;;;;;;22.35;8.85;;;7.10;99.90;;;;;;5028546;28;20033;-76
2021/11/07 09:30:03;;;;;;;19.63;8.77;;;7.10;99.90;;;;;;5010047;28;20018;-77
2021/11/07 09:32:46;;;;;;;15.10;7.82;;;7.20;99.90;;;;;;5008294;28;20034;-76
2021/11/07 09:35:31;;;;;;;21.13;9.20;;;7.20;99.90;;;;;;5026019;28;20026;-76
2021/11/07 09:38:01;;;;;;;19.83;8.37;;;7.20;99.80;;;;;;5009986;28;20088;-76
2021/11/07 09:40:30;;;;;;;16.80;8.47;;;7.20;99.60;;;;;;5010373;28;20022;-76
2021/11/07 09:48:19;;;;;;;20.23;9.03;;;7.40;99.40;;;;;;5009806;28;20515;-75
2021/11/07 09:50:46;;;;;;;14.07;7.93;;;7.40;99.40;;;;;;5009985;28;20364;-77
2021/11/07 09:53:13;;;;;;;17.47;8.30;;;7.40;99.10;;;;;;5025600;28;20026;-76
2021/11/07 09:55:39;;;;;;;18.23;8.10;;;7.40;98.80;;;;;;5009331;28;20041;-76
2021/11/07 09:58:06;;;;;;;16.97;7.73;;;7.40;98.80;;;;;;5009024;28;20386;-75
2021/11/07 10:00:42;;;;;;;17.83;8.27;;;7.50;98.40;;;;;;5008409;28;20053;-75
2021/11/07 10:03:09;;;;;;;21.30;7.17;;;7.60;98.50;;;;;;5006352;28;20100;-76
2021/11/07 10:05:41;;;;;;;21.10;8.23;;;7.60;98.80;;;;;;5011695;28;20026;-76
2021/11/07 10:08:09;;;;;;;18.73;7.88;;;7.60;98.60;;;;;;5024907;28;20034;-75
2021/11/07 10:10:44;;;;;;;17.97;8.20;;;7.60;98.40;;;;;;5027947;28;20026;-75
2021/11/07 10:13:18;;;;;;;15.73;7.63;;;7.70;98.40;;;;;;5000845;28;20072;-76
2021/11/07 10:15:46;;;;;;;17.48;7.95;;;7.70;98.30;;;;;;5025376;28;20120;-76
2021/11/07 10:18:25;;;;;;;17.30;7.25;;;7.70;98.10;;;;;;5027567;28;20042;-75
2021/11/07 10:20:58;;;;;;;15.55;7.18;;;7.80;98.20;;;;;;5011939;28;20121;-76
2021/11/07 10:29:15;;;;;;;13.70;6.32;;;7.90;97.40;;;;;;5012917;28;20406;-76
2021/11/07 10:31:57;;;;;;;14.75;7.20;;;7.90;97.10;;;;;;5011042;28;20033;-72
2021/11/07 10:45:41;;;;;;;12.77;6.28;;;8.10;96.90;;;;;;5012307;28;20469;-75
2021/11/07 10:53:29;;;;;;;16.17;6.72;;;8.30;96.70;;;;;;5010630;28;20040;-76
2021/11/07 10:56:02;;;;;;;11.77;6.00;;;8.40;96.50;;;;;;5011982;28;20022;-76
2021/11/07 10:58:41;;;;;;;13.23;6.32;;;8.50;96.50;;;;;;5011456;28;20026;-75
2021/11/07 11:01:18;;;;;;;13.52;6.10;;;8.50;96.40;;;;;;5026733;28;20022;-75
2021/11/07 11:03:48;;;;;;;11.02;5.90;;;8.50;96.50;;;;;;5019564;28;20087;-74
2021/11/07 11:06:14;;;;;;;13.82;6.00;;;8.40;96.70;;;;;;5010198;28;20044;-74
2021/11/07 11:08:46;;;;;;;12.88;6.55;;;8.40;97.00;;;;;;5024337;28;20029;-76
2021/11/07 11:11:27;;;;;;;13.52;6.28;;;8.40;97.00;;;;;;5009227;28;20024;-76
2021/11/07 11:14:07;;;;;;;13.45;6.68;;;8.40;96.90;;;;;;5009741;28;20034;-76
2021/11/07 11:22:28;;;;;;;19.08;7.30;;;8.40;97.40;;;;;;5005879;28;20331;-75
2021/11/07 11:27:57;;;;;;;14.63;6.03;;;8.50;97.70;;;;;;5007710;28;19960;-76
2021/11/07 11:33:21;;;;;;;11.77;6.00;;;8.40;98.10;;;;;;5008996;28;20024;-74
2021/11/07 11:35:59;;;;;;;13.27;6.65;;;8.40;98.70;;;;;;5009510;28;20030;-74
2021/11/07 11:41:08;;;;;;;12.10;6.10;;;8.40;99.00;;;;;;5009330;28;20038;-76
2021/11/07 11:43:40;;;;;;;14.80;6.65;;;8.40;99.20;;;;;;5008325;28;20491;-76
2021/11/07 11:46:23;;;;;;;19.58;7.63;;;8.40;99.70;;;;;;5013716;28;20160;-77
2021/11/07 11:52:07;;;;;;;14.10;6.72;;;8.40;99.90;;;;;;5012904;28;20037;-75
2021/11/07 11:57:56;;;;;;;14.07;6.93;;;8.40;99.90;;;;;;5036230;28;20040;-76
2021/11/07 12:06:33;;;;;;;15.13;6.95;;;8.30;99.90;;;;;;5012837;28;20459;-76
2021/11/07 12:12:25;;;;;;;14.65;7.03;;;8.30;99.90;;;;;;5013281;28;20441;-77
2021/11/07 12:15:26;;;;;;;12.10;6.10;;;8.40;99.90;;;;;;5011890;28;20058;-77
2021/11/07 12:18:06;;;;;;;11.65;5.75;;;8.30;99.90;;;;;;5011543;28;20072;-75
2021/11/07 12:20:36;;;;;;;10.40;5.32;;;8.30;99.90;;;;;;5010944;28;20427;-77
2021/11/07 12:23:28;;;;;;;10.43;4.97;;;8.40;99.90;;;;;;5010249;28;20030;-77
2021/11/07 12:25:55;;;;;;;11.30;5.10;;;8.40;99.90;;;;;;5025841;28;20479;-77
2021/11/07 12:28:40;;;;;;;11.43;5.03;;;8.50;99.90;;;;;;5011012;28;20092;-77
2021/11/07 12:31:06;;;;;;;8.98;4.43;;;8.50;99.90;;;;;;5006336;28;20421;-77
2021/11/07 12:42:17;;;;;;;11.18;4.93;;;8.40;99.90;;;;;;5012061;28;20066;-76
2021/11/07 12:44:49;;;;;;;9.38;4.50;;;8.50;99.90;;;;;;5011341;28;20025;-77
2021/11/07 12:47:15;;;;;;;11.77;5.18;;;8.50;99.90;;;;;;5010462;28;20421;-76
2021/11/07 12:49:57;;;;;;;8.38;4.25;;;8.50;99.90;;;;;;5010600;28;20108;-77
2021/11/07 12:52:23;;;;;;;11.05;4.90;;;8.60;99.90;;;;;;5011481;28;20026;-76
2021/11/07 12:54:49;;;;;;;11.00;4.53;;;8.50;99.90;;;;;;5011363;28;20034;-76
2021/11/07 12:57:18;;;;;;;10.23;4.57;;;8.50;99.90;;;;;;5009577;28;20060;-77
2021/11/07 12:59:53;;;;;;;9.27;4.43;;;8.40;99.90;;;;;;5025532;28;20088;-77
2021/11/07 13:02:23;;;;;;;9.52;4.30;;;8.40;99.90;;;;;;5008601;28;20475;-76
2021/11/07 13:05:04;;;;;;;10.27;4.20;;;8.40;99.90;;;;;;5009705;28;20394;-75
2021/11/07 13:10:20;;;;;;;8.65;4.40;;;8.40;99.90;;;;;;5009493;28;20030;-77
2021/11/07 13:12:52;;;;;;;8.50;4.50;;;8.40;99.90;;;;;;5011216;28;20108;-76
2021/11/07 13:28:39;;;;;;;7.82;4.13;;;8.30;99.90;;;;;;5010379;28;20036;-76
2021/11/07 13:31:15;;;;;;;10.85;4.90;;;8.30;99.90;;;;;;5011328;28;20069;-76
2021/11/07 13:34:13;;;;;;;10.05;4.70;;;8.20;99.90;;;;;;5017827;28;20518;-77
2021/11/07 13:37:09;;;;;;;9.38;4.95;;;8.30;99.90;;;;;;5010447;28;20018;-77
2021/11/07 13:39:37;;;;;;;11.35;5.47;;;8.20;99.90;;;;;;5013597;28;20095;-78
2021/11/07 13:42:12;;;;;;;12.70;4.70;;;8.30;99.90;;;;;;5014805;28;20026;-78
2021/11/07 13:45:30;;;;;;;12.27;4.95;;;8.20;99.90;;;;;;5012925;28;20044;-77
2021/11/07 13:48:00;;;;;;;9.27;4.55;;;8.20;99.90;;;;;;4973603;28;20092;-77
2021/11/07 13:50:30;;;;;;;8.10;4.88;;;8.20;99.90;;;;;;5010537;28;20022;-76
2021/11/07 13:52:56;;;;;;;8.05;4.80;;;8.20;99.90;;;;;;5009434;28;20120;-77
2021/11/07 13:55:27;;;;;;;8.27;4.78;;;8.20;99.90;;;;;;5007488;28;20169;-76
2021/11/07 13:57:55;;;;;;;9.52;5.30;;;8.20;99.90;;;;;;5009878;28;20038;-77
2021/11/07 14:00:24;;;;;;;10.40;4.80;;;8.20;99.90;;;;;;5008755;28;20400;-76
2021/11/07 14:02:59;;;;;;;11.20;4.88;;;8.10;99.90;;;;;;5009301;28;20033;-76
2021/11/07 14:05:25;;;;;;;9.52;4.82;;;8.10;99.90;;;;;;4997063;28;20032;-77
2021/11/07 14:08:05;;;;;;;10.98;4.97;;;8.10;99.90;;;;;;5008953;28;20041;-77
2021/11/07 14:10:34;;;;;;;9.40;4.60;;;8.10;99.90;;;;;;5009650;28;20041;-76
2021/11/07 14:13:11;;;;;;;9.23;4.80;;;8.10;99.90;;;;;;5009133;28;20208;-77
2021/11/07 14:15:42;;;;;;;8.82;5.22;;;8.10;99.90;;;;;;5011205;28;20018;-76
2021/11/07 14:18:13;;;;;;;6.82;3.15;;;8.20;99.90;;;;;;5009196;28;20048;-78
2021/11/07 14:21:03;;;;;;;8.15;3.90;;;8.20;99.90;;;;;;5009334;28;20057;-77
2021/11/07 14:23:40;;;;;;;7.20;4.35;;;8.20;99.90;;;;;;5008869;28;20018;-76
2021/11/07 14:26:16;;;;;;;9.10;4.70;;;8.20;99.90;;;;;;5009219;28;20042;-78
2021/11/07 14:29:08;;;;;;;10.35;4.50;;;8.20;99.90;;;;;;5009372;28;20042;-74
2021/11/07 14:31:48;;;;;;;10.77;4.78;;;8.20;99.90;;;;;;5003200;28;20026;-78
2021/11/07 14:34:28;;;;;;;8.65;4.43;;;8.20;99.90;;;;;;5007768;28;20056;-77
2021/11/07 14:47:28;;;;;;;14.32;4.95;;;8.30;99.90;;;;;;4993370;28;20041;-77
2021/11/07 14:50:35;;;;;;;7.43;4.57;;;8.30;99.90;;;;;;5000835;28;20026;-76
2021/11/07 14:53:09;;;;;;;11.45;5.05;;;8.30;99.90;;;;;;4979543;28;20042;-75
2021/11/07 14:55:43;;;;;;;8.25;4.20;;;8.30;99.90;;;;;;5009883;28;20038;-75
2021/11/07 15:01:14;;;;;;;9.13;4.70;;;8.40;99.90;;;;;;5009113;28;20061;-76
2021/11/07 15:15:44;;;;;;;10.05;4.50;;;8.40;99.90;;;;;;5009763;28;20030;-75
2021/11/07 15:19:08;;;;;;;9.55;4.50;;;8.40;99.90;;;;;;5008162;28;20050;-75
2021/11/07 15:21:35;;;;;;;8.52;4.70;;;8.50;99.90;;;;;;5015506;28;20041;-78
2021/11/07 15:24:06;;;;;;;8.50;4.50;;;8.50;99.90;;;;;;5029180;28;20033;-75
2021/11/07 15:26:38;;;;;;;8.27;4.38;;;8.50;99.90;;;;;;5012336;28;20030;-75
2021/11/07 15:29:12;;;;;;;8.05;4.55;;;8.50;99.90;;;;;;5012375;28;20037;-76
2021/11/07 15:31:38;;;;;;;9.02;4.65;;;8.50;99.90;;;;;;5012435;28;20026;-75
2021/11/07 15:34:11;;;;;;;9.68;5.13;;;8.50;99.90;;;;;;5011560;28;20116;-75
2021/11/07 15:36:46;;;;;;;9.88;4.95;;;8.50;99.90;;;;;;5012061;28;20030;-75
2021/11/07 15:39:16;;;;;;;9.68;4.57;;;8.50;99.90;;;;;;5028622;28;20506;-76
2021/11/07 15:42:01;;;;;;;9.93;5.32;;;8.60;99.90;;;;;;5012569;28;20117;-77
2021/11/07 15:44:27;;;;;;;8.30;4.60;;;8.60;99.90;;;;;;5004433;28;20030;-75
2021/11/07 15:46:57;;;;;;;10.18;4.70;;;8.60;99.90;;;;;;5028482;28;20034;-77
2021/11/07 15:49:23;;;;;;;10.10;4.85;;;8.60;99.90;;;;;;5019900;28;20026;-76